High Forest, Minnesota
Current Conditions -  °F | °C
As of 9:54 AM on Thursday 29 Jan 2015 (Local Time) from KRST Reporting Station
Haze Haze  
Wind Chill: 16°   Ceiling: 600
Heat Index: 30°   Visibility: 5mi
Dew Point: 27°   Wind: 26mph
Humidity: 88%   Direction: 330°NNW
Pressure: 30.11"   Gusts: 36mph
Location:  43.8884°N, 92.383°W
Report Text: KRST 291554Z 33023G31KT 5SM BR OVC006 M01/M03 A3011 RMK AO2 PK WND 32031/1546 SLP212 T10111028
Loading
Personal Weather Stations






























Interactive Weather Map New forecast layout! Learn more

10-Day Weather Forecast

Advertisements
Track Severe Weather on mobile